createdAt,value
2023-06-19T00:08:31.755Z,80.68
2023-06-19T00:18:41.103Z,80.68
2023-06-19T00:28:57.747Z,80.53
2023-06-19T00:39:04.897Z,81.08
2023-06-19T00:49:09.189Z,81.01
2023-06-19T00:59:20.301Z,81.40
2023-06-19T01:09:23.465Z,81.70
2023-06-19T01:19:27.491Z,81.98
2023-06-19T01:29:33.893Z,81.65
2023-06-19T01:39:38.585Z,82.04
2023-06-19T01:49:45.105Z,82.06
2023-06-19T01:59:48.762Z,82.01
2023-06-19T02:09:55.326Z,81.63
2023-06-19T02:20:01.798Z,82.72
2023-06-19T02:30:06.332Z,82.46
2023-06-19T02:48:05.941Z,82.55
2023-06-19T02:58:09.758Z,82.59
2023-06-19T03:08:15.428Z,82.68
2023-06-19T03:18:18.892Z,83.19
2023-06-19T03:28:22.844Z,83.29
2023-06-19T03:38:26.392Z,83.50
2023-06-19T03:48:30.324Z,83.77
2023-06-19T03:58:34.864Z,84.53
2023-06-19T04:08:39.822Z,85.36
2023-06-19T04:18:43.593Z,85.62
2023-06-19T04:28:47.497Z,86.41
2023-06-19T04:38:54.146Z,87.33
2023-06-19T04:48:57.607Z,86.66
2023-06-19T04:59:08.993Z,85.95
2023-06-19T05:09:12.726Z,85.17
2023-06-19T05:19:16.686Z,82.94
2023-06-19T05:29:19.933Z,79.07
2023-06-19T05:39:24.217Z,73.99
2023-06-19T05:49:27.258Z,69.29
2023-06-19T05:59:30.393Z,65.44
2023-06-19T06:09:34.423Z,64.37
2023-06-19T06:19:38.389Z,63.67
2023-06-19T06:29:42.724Z,62.96
2023-06-19T06:39:46.947Z,59.36
2023-06-19T06:49:50.147Z,57.06
2023-06-19T06:59:55.065Z,54.11
2023-06-19T07:09:58.284Z,51.47
2023-06-19T07:20:02.642Z,49.76
2023-06-19T07:30:06.657Z,47.53
2023-06-19T07:40:11.262Z,44.99
2023-06-19T07:50:17.330Z,44.79
2023-06-19T08:00:20.854Z,42.83
2023-06-19T08:10:24.588Z,42.44
2023-06-19T08:20:28.434Z,40.33
2023-06-19T08:30:32.094Z,40.07
2023-06-19T08:40:35.425Z,40.44
2023-06-19T08:50:38.582Z,42.02
2023-06-19T09:00:48.472Z,41.73
2023-06-19T09:11:02.502Z,39.71
2023-06-19T09:21:05.590Z,40.29
2023-06-19T09:31:08.910Z,41.31
2023-06-19T09:41:13.594Z,40.74
2023-06-19T09:51:32.466Z,41.17
2023-06-19T10:01:39.897Z,42.40
2023-06-19T10:11:55.703Z,41.22
2023-06-19T10:22:01.415Z,39.00
2023-06-19T10:32:05.153Z,39.30
2023-06-19T10:42:09.735Z,40.24
2023-06-19T10:52:14.592Z,39.55
2023-06-19T11:02:19.655Z,40.64
2023-06-19T11:12:23.773Z,41.56
2023-06-19T11:22:42.057Z,40.14
2023-06-19T11:32:46.934Z,40.99
2023-06-19T11:42:54.969Z,40.65
2023-06-19T11:53:01.504Z,41.92
2023-06-19T12:03:05.084Z,40.80
2023-06-19T12:13:08.732Z,38.51
2023-06-19T12:23:11.686Z,41.36
2023-06-19T12:33:14.857Z,39.56
2023-06-19T12:43:19.119Z,36.98
2023-06-19T12:53:27.823Z,37.62
2023-06-19T13:03:31.497Z,36.19
2023-06-19T13:13:35.224Z,35.84
2023-06-19T13:23:38.481Z,35.62
2023-06-19T13:33:42.013Z,36.31
2023-06-19T13:43:47.095Z,35.57
2023-06-19T13:53:50.851Z,36.25
2023-06-19T14:03:58.792Z,37.60
2023-06-19T14:14:02.600Z,36.85
2023-06-19T14:24:06.741Z,36.48
2023-06-19T14:34:10.165Z,36.95
2023-06-19T14:44:13.602Z,37.46
2023-06-19T15:05:05.094Z,44.50
2023-06-19T15:15:12.610Z,45.28
2023-06-19T15:25:17.443Z,47.39
2023-06-19T15:35:20.733Z,47.16
2023-06-19T15:45:24.280Z,43.46
2023-06-19T15:55:29.009Z,43.39
2023-06-19T16:05:33.320Z,43.15
2023-06-19T16:15:37.281Z,43.26
2023-06-19T16:25:40.616Z,43.34
2023-06-19T16:35:44.118Z,43.15
2023-06-19T16:45:47.345Z,44.97
2023-06-19T16:55:59.618Z,44.93
2023-06-19T17:06:03.153Z,46.48
2023-06-19T17:16:06.469Z,48.64
2023-06-19T17:26:09.970Z,50.63
2023-06-19T17:36:13.061Z,52.07
2023-06-19T17:46:16.203Z,53.62
2023-06-19T17:56:19.986Z,55.49
2023-06-19T18:06:23.214Z,57.55
2023-06-19T18:16:28.777Z,58.74
2023-06-19T18:26:32.843Z,61.04
2023-06-19T18:36:36.398Z,62.73
2023-06-19T18:46:40.081Z,64.68
2023-06-19T18:56:43.162Z,66.97
2023-06-19T19:06:46.372Z,68.89
2023-06-19T19:16:51.485Z,70.73
2023-06-19T19:26:54.988Z,71.85
2023-06-19T19:36:58.421Z,72.87
2023-06-19T19:47:02.075Z,73.47
2023-06-19T19:57:06.954Z,74.43
2023-06-19T20:07:11.211Z,75.58
2023-06-19T20:17:14.991Z,76.73
2023-06-19T20:27:18.222Z,77.84
2023-06-19T20:37:21.744Z,78.25
2023-06-19T20:47:25.029Z,78.71
2023-06-19T20:57:28.088Z,78.95
2023-06-19T21:07:34.242Z,80.22
2023-06-19T21:17:37.580Z,80.36
2023-06-19T21:27:43.294Z,80.31
2023-06-19T21:37:47.715Z,80.28
2023-06-19T21:47:51.846Z,80.77
2023-06-19T21:58:00.045Z,80.77
2023-06-19T22:08:04.379Z,80.54
2023-06-19T22:18:07.544Z,80.77
2023-06-19T22:28:11.392Z,81.18
2023-06-19T22:38:15.323Z,81.65
2023-06-19T22:48:19.644Z,81.05
2023-06-19T22:58:23.395Z,81.15
2023-06-19T23:08:27.152Z,81.02
2023-06-19T23:18:30.702Z,81.70
2023-06-19T23:28:33.811Z,82.46
2023-06-19T23:38:36.913Z,82.69
2023-06-19T23:48:40.652Z,82.66
2023-06-19T23:58:43.752Z,82.81
